Main page
METAR-TAF:

METAR-TAF

Airports :

Parma Airport

Parma, Italy

latitude: 44-49-17N, longitude: 010-17-41E, elevation: 50 m

Current weather observation

The report was made 1 hour and 17 minutes ago, at 17:50 UTC
Wind 3 kt from the Northwest
Temperature 7°C
Humidity 93%
Pressure 1017 hPa
Visibility: 5000 m
Broken clouds at a height of 5000 ft
mist

METAR: LIMP 211750Z 32003KT 5000 BR BKN050 07/06 Q1017

Time: 20:07 (19:07 UTC)

Forecast

The report was made 2 hours and 7 minutes ago, at 17:00 UTC
Forecast valid from 21 at 18 UTC to 22 at 18 UTC
Wind 5 kt from variable directions
Visibility: 6000 m
Scattered clouds at a height of 2500 ft
Broken clouds at a height of 6000 ft
Temporary
from 21 at 18 UTC to 22 at 03 UTC
rain
Temporary
from 22 at 03 UTC to 22 at 08 UTC
Visibility: 0400 m
fog

TAF: LIMP 211700Z 2118/2218 VRB05KT 6000 SCT025 BKN060 TEMPO 2118/2203 RA TEMPO 2203/2208 0400 FG

Weather observations and forecasts of more than 4000 airports (METAR and TAF reports).

The available stations are represented by yellow and red dots on the map.

Hover mouse over dot to see the name of the station.

Then click to see weather observations and forecasts.

To change the map : click on the green buttons with a black cross to zoom in, on the green button with a dash to zoom out, or on the green arrows for adjacent maps.


METAR-TAF: